Time;durP1;ratioP1;P1;durP2;ratioP2;P2;SDS_P1;SDS_P2;PMS_P1;PMS_P2;Temp;Humidity;BMP_temperature;BMP_pressure;BME280_temperature;BME280_humidity;BME280_pressure;Samples;Min_cycle;Max_cycle;Signal;HPM_P1;HPM_P2
2022/01/15 00:01:20;;;;;;;5.97;2.03;;;-2.20;99.90;;;;;;5096387;28;20146;-62
2022/01/15 00:04:45;;;;;;;7.72;1.88;;;-2.20;99.90;;;;;;5095216;28;20039;-62
2022/01/15 00:08:11;;;;;;;7.53;1.85;;;-2.30;99.90;;;;;;5090127;28;20040;-62
2022/01/15 00:11:37;;;;;;;6.93;2.72;;;-2.30;99.90;;;;;;5090986;28;20127;-61
2022/01/15 00:15:01;;;;;;;7.05;2.20;;;-2.40;99.90;;;;;;5100610;28;20399;-61
2022/01/15 00:18:40;;;;;;;12.15;3.00;;;-2.40;99.90;;;;;;5100103;28;20178;-61
2022/01/15 00:21:52;;;;;;;19.27;3.53;;;-2.50;99.90;;;;;;5100305;28;20518;-61
2022/01/15 00:25:18;;;;;;;11.00;3.25;;;-2.50;99.90;;;;;;5088517;28;20040;-61
2022/01/15 00:28:43;;;;;;;15.18;2.75;;;-2.60;99.90;;;;;;5090719;28;20035;-61
2022/01/15 00:32:08;;;;;;;13.48;2.85;;;-2.60;99.90;;;;;;5096148;28;20151;-62
2022/01/15 00:35:35;;;;;;;7.00;1.88;;;-2.60;99.90;;;;;;5092367;28;20540;-62
2022/01/15 00:38:59;;;;;;;16.30;3.33;;;-2.60;99.90;;;;;;5090656;28;20036;-61
2022/01/15 00:42:25;;;;;;;7.15;1.88;;;-2.60;99.90;;;;;;5090744;28;20073;-61
2022/01/15 00:45:50;;;;;;;10.13;2.67;;;-2.60;99.90;;;;;;5093494;28;20266;-62
2022/01/15 00:49:15;;;;;;;10.30;2.25;;;-2.50;99.90;;;;;;5096283;28;20404;-62
2022/01/15 00:52:42;;;;;;;12.15;3.40;;;-2.50;99.90;;;;;;5098972;28;20047;-62
2022/01/15 00:56:06;;;;;;;11.80;2.42;;;-2.50;99.90;;;;;;5094601;28;20420;-62
2022/01/15 00:59:31;;;;;;;14.40;2.65;;;-2.50;99.90;;;;;;5092219;28;20043;-62
2022/01/15 01:02:57;;;;;;;13.05;2.60;;;-2.50;99.90;;;;;;5090921;28;20036;-62
2022/01/15 01:06:22;;;;;;;12.07;2.15;;;-2.50;99.90;;;;;;5093091;28;20482;-62
2022/01/15 01:13:27;;;;;;;5.90;1.65;;;-2.60;99.90;;;;;;5086810;28;20652;-62
2022/01/15 01:20:11;;;;;;;10.18;2.00;;;-2.60;99.90;;;;;;5099964;28;20081;-61
2022/01/15 01:23:35;;;;;;;8.35;2.55;;;-2.60;99.90;;;;;;5095698;28;20039;-62
2022/01/15 01:27:05;;;;;;;24.63;3.00;;;-2.60;99.90;;;;;;5093298;28;20023;-62
2022/01/15 01:30:32;;;;;;;10.20;2.08;;;-2.70;99.90;;;;;;5090938;28;20079;-62
2022/01/15 01:33:55;;;;;;;12.38;2.08;;;-2.70;99.90;;;;;;5087548;28;20040;-62
2022/01/15 01:37:30;;;;;;;11.23;2.20;;;-2.70;99.90;;;;;;5087214;28;20545;-62
2022/01/15 01:40:49;;;;;;;9.88;1.92;;;-2.70;99.90;;;;;;5087682;28;20044;-62
2022/01/15 01:44:16;;;;;;;13.07;2.97;;;-2.70;99.90;;;;;;5094230;28;20035;-62
2022/01/15 01:47:41;;;;;;;13.93;2.22;;;-2.70;99.90;;;;;;5087541;28;20276;-63
2022/01/15 01:51:07;;;;;;;9.80;1.88;;;-2.70;99.90;;;;;;5094175;28;20418;-62
2022/01/15 01:54:32;;;;;;;12.70;2.80;;;-2.60;99.90;;;;;;5087975;28;20039;-63
2022/01/15 01:57:57;;;;;;;7.97;1.80;;;-2.50;99.90;;;;;;5087085;28;20048;-62
2022/01/15 02:01:23;;;;;;;14.07;2.10;;;-2.30;99.90;;;;;;5086384;28;20315;-62
2022/01/15 02:04:48;;;;;;;10.77;1.98;;;-2.20;99.90;;;;;;5095695;28;20043;-63
2022/01/15 02:08:14;;;;;;;16.33;2.88;;;-2.20;99.90;;;;;;5092381;28;20386;-62
2022/01/15 02:11:40;;;;;;;9.82;1.50;;;-2.20;99.90;;;;;;5082825;28;20135;-62
2022/01/15 02:15:07;;;;;;;7.45;2.38;;;-2.10;99.90;;;;;;5086846;28;20047;-62
2022/01/15 02:18:34;;;;;;;17.52;2.35;;;-2.10;99.90;;;;;;5092642;28;20498;-63
2022/01/15 02:25:22;;;;;;;11.02;1.80;;;-2.00;99.90;;;;;;5098443;28;20541;-62
2022/01/15 02:28:48;;;;;;;18.48;1.92;;;-2.10;99.90;;;;;;5089506;28;20048;-62
2022/01/15 02:32:13;;;;;;;8.98;2.00;;;-2.00;99.90;;;;;;5095354;28;20217;-62
2022/01/15 02:35:38;;;;;;;13.77;2.30;;;-2.10;99.90;;;;;;5088709;28;20297;-63
2022/01/15 02:39:04;;;;;;;7.55;1.60;;;-2.10;99.90;;;;;;5098037;28;20039;-62
2022/01/15 02:42:31;;;;;;;10.60;2.38;;;-2.20;99.90;;;;;;5093217;28;20163;-63
2022/01/15 02:45:56;;;;;;;15.07;2.22;;;-2.10;99.90;;;;;;5096602;28;20036;-63
2022/01/15 02:49:22;;;;;;;11.95;2.78;;;-2.20;99.90;;;;;;5087004;28;20035;-62
2022/01/15 02:52:08;;;;;;;18.95;2.20;;;-2.20;99.90;;;;;;5086192;28;20043;-59
2022/01/15 02:54:33;;;;;;;15.63;2.75;;;-2.20;99.90;;;;;;5108173;28;20418;-59
2022/01/15 02:57:04;;;;;;;20.23;2.80;;;-2.30;99.90;;;;;;5087361;28;20028;-59
2022/01/15 02:59:30;;;;;;;15.25;2.83;;;-2.30;99.90;;;;;;5088424;28;20036;-59
2022/01/15 03:01:55;;;;;;;27.20;3.50;;;-2.30;99.90;;;;;;5094273;28;20032;-59
2022/01/15 03:04:21;;;;;;;23.70;2.97;;;-2.30;99.90;;;;;;5108297;28;20052;-59
2022/01/15 03:06:46;;;;;;;20.73;2.78;;;-2.30;99.90;;;;;;5097649;28;20028;-59
2022/01/15 03:09:12;;;;;;;16.63;2.38;;;-2.20;99.90;;;;;;5088964;28;20047;-59
2022/01/15 03:11:38;;;;;;;18.17;2.42;;;-2.20;99.90;;;;;;5104729;28;20032;-59
2022/01/15 03:14:03;;;;;;;16.73;2.95;;;-2.20;99.90;;;;;;5091779;28;20063;-59
2022/01/15 03:16:29;;;;;;;27.65;3.40;;;-2.20;99.90;;;;;;5110122;28;20063;-59
2022/01/15 03:18:54;;;;;;;20.10;2.38;;;-2.30;99.90;;;;;;5093422;28;20032;-60
2022/01/15 03:21:20;;;;;;;16.67;2.60;;;-2.30;99.90;;;;;;5110122;28;20035;-59
2022/01/15 03:23:45;;;;;;;7.50;1.90;;;-2.30;99.90;;;;;;5112662;28;20093;-59
2022/01/15 03:26:14;;;;;;;13.30;1.88;;;-2.30;99.90;;;;;;5097022;28;20530;-59
2022/01/15 03:28:41;;;;;;;15.77;2.67;;;-2.30;99.90;;;;;;5105706;28;20040;-59
2022/01/15 03:31:06;;;;;;;21.25;2.58;;;-2.30;99.90;;;;;;5095441;28;20038;-59
2022/01/15 03:33:32;;;;;;;10.88;2.70;;;-2.20;99.90;;;;;;5112509;28;20386;-59
2022/01/15 03:35:58;;;;;;;17.00;3.72;;;-2.10;99.90;;;;;;5095035;28;20027;-59
2022/01/15 03:38:24;;;;;;;9.48;2.25;;;-2.10;99.90;;;;;;5112482;28;20024;-59
2022/01/15 03:40:52;;;;;;;19.58;2.67;;;-2.00;99.90;;;;;;5093370;28;20046;-60
2022/01/15 03:43:17;;;;;;;11.57;1.80;;;-2.00;99.90;;;;;;5090923;28;20043;-60
2022/01/15 03:45:43;;;;;;;25.92;3.30;;;-2.00;99.90;;;;;;5109780;28;20023;-59
2022/01/15 03:48:08;;;;;;;26.27;3.13;;;-2.00;99.90;;;;;;5112319;28;20478;-60
2022/01/15 03:50:34;;;;;;;14.00;2.33;;;-2.00;99.90;;;;;;5091106;28;20036;-59
2022/01/15 03:53:00;;;;;;;16.35;3.03;;;-2.00;99.90;;;;;;5112360;28;20387;-60
2022/01/15 03:55:25;;;;;;;26.40;3.45;;;-2.10;99.90;;;;;;5092364;28;20032;-60
2022/01/15 03:57:51;;;;;;;26.48;3.53;;;-2.10;99.90;;;;;;5109716;28;20077;-60
2022/01/15 04:00:24;;;;;;;16.08;2.35;;;-2.10;99.90;;;;;;5092526;28;20027;-59
2022/01/15 04:02:50;;;;;;;18.67;3.22;;;-2.20;99.90;;;;;;5089838;28;20117;-59
2022/01/15 04:05:16;;;;;;;7.45;1.38;;;-2.20;99.90;;;;;;5111336;28;20042;-60
2022/01/15 04:07:42;;;;;;;18.38;2.60;;;-2.30;99.90;;;;;;5090168;28;20024;-60
2022/01/15 04:10:10;;;;;;;16.75;2.67;;;-2.30;99.90;;;;;;5111003;28;20058;-60
2022/01/15 04:12:36;;;;;;;20.38;2.65;;;-2.40;99.90;;;;;;5089849;28;20437;-60
2022/01/15 04:15:02;;;;;;;14.05;2.40;;;-2.40;99.90;;;;;;5111167;28;20023;-60
2022/01/15 04:17:28;;;;;;;20.42;3.15;;;-2.50;99.90;;;;;;5089663;28;20436;-60
2022/01/15 04:19:53;;;;;;;16.05;2.40;;;-2.50;99.90;;;;;;5111019;28;20269;-60
2022/01/15 04:22:19;;;;;;;28.58;3.15;;;-2.50;99.90;;;;;;5090059;28;20491;-58
2022/01/15 04:24:44;;;;;;;10.73;2.53;;;-2.60;99.90;;;;;;5110605;28;20445;-60
2022/01/15 04:27:10;;;;;;;21.88;2.65;;;-2.50;99.90;;;;;;5090191;28;20568;-60
2022/01/15 04:29:36;;;;;;;21.50;3.10;;;-2.50;99.90;;;;;;5110791;28;20040;-60
2022/01/15 04:32:02;;;;;;;15.10;2.25;;;-2.60;99.90;;;;;;5089771;28;20020;-60
2022/01/15 04:34:30;;;;;;;21.63;2.70;;;-2.60;99.90;;;;;;5110515;28;20036;-59
2022/01/15 04:37:04;;;;;;;19.13;2.60;;;-2.60;99.90;;;;;;5088068;28;20527;-60
2022/01/15 04:39:30;;;;;;;22.30;2.90;;;-2.60;99.90;;;;;;5091049;28;20055;-60
2022/01/15 04:41:55;;;;;;;14.55;2.20;;;-2.60;99.90;;;;;;5093211;28;20454;-55
2022/01/15 04:44:21;;;;;;;17.75;3.28;;;-2.60;99.90;;;;;;5111252;28;20088;-59
2022/01/15 04:46:47;;;;;;;22.67;2.65;;;-2.60;99.90;;;;;;5099982;28;20134;-60
2022/01/15 04:49:12;;;;;;;8.80;1.75;;;-2.60;99.90;;;;;;5091193;28;20024;-60
2022/01/15 04:51:38;;;;;;;11.13;2.17;;;-2.60;99.90;;;;;;5108451;28;20119;-59
2022/01/15 04:54:04;;;;;;;17.42;2.40;;;-2.60;99.90;;;;;;5091108;28;20035;-59
2022/01/15 04:56:30;;;;;;;28.92;2.70;;;-2.50;99.90;;;;;;5108289;28;20027;-59
2022/01/15 04:58:55;;;;;;;25.60;2.92;;;-2.50;99.90;;;;;;5091230;28;20506;-60
2022/01/15 05:01:21;;;;;;;30.73;3.05;;;-2.40;99.90;;;;;;5108634;28;20111;-60
2022/01/15 05:03:46;;;;;;;13.88;2.22;;;-2.40;99.90;;;;;;5110713;28;20023;-60
2022/01/15 05:06:12;;;;;;;19.88;2.92;;;-2.30;99.90;;;;;;5093694;28;20024;-60
2022/01/15 05:08:40;;;;;;;26.65;4.07;;;-2.30;99.90;;;;;;5110822;28;20027;-60
2022/01/15 05:11:13;;;;;;;21.58;2.95;;;-2.20;99.90;;;;;;5093515;28;20479;-60
2022/01/15 05:13:39;;;;;;;16.38;2.35;;;-2.20;99.90;;;;;;5108535;28;20727;-60
2022/01/15 05:16:06;;;;;;;23.83;3.40;;;-2.10;99.90;;;;;;5110720;28;20027;-60
2022/01/15 05:18:31;;;;;;;12.98;1.85;;;-2.00;99.90;;;;;;5092114;28;20020;-60
2022/01/15 05:20:57;;;;;;;16.50;2.13;;;-1.90;99.90;;;;;;5110674;28;20023;-60
2022/01/15 05:23:23;;;;;;;8.38;2.00;;;-1.80;99.90;;;;;;5091142;28;20089;-59
2022/01/15 05:25:48;;;;;;;19.55;2.72;;;-1.60;99.90;;;;;;5110446;28;20479;-60
2022/01/15 05:28:14;;;;;;;10.82;2.83;;;-1.50;99.90;;;;;;5090515;28;20441;-59
2022/01/15 05:30:39;;;;;;;10.38;2.00;;;-1.30;99.90;;;;;;5090110;28;20518;-59
2022/01/15 05:33:05;;;;;;;17.00;2.15;;;-1.20;99.90;;;;;;5109500;28;20531;-60
2022/01/15 05:35:30;;;;;;;17.52;3.08;;;-1.10;99.90;;;;;;5108652;28;20035;-59
2022/01/15 05:37:57;;;;;;;25.17;3.58;;;-0.90;99.90;;;;;;5090719;28;20098;-60
2022/01/15 05:40:23;;;;;;;18.17;3.25;;;-0.70;99.90;;;;;;5088473;28;20514;-59
2022/01/15 05:42:49;;;;;;;23.70;3.63;;;-0.60;99.90;;;;;;5092781;28;20028;-59
2022/01/15 05:45:15;;;;;;;18.00;3.38;;;-0.40;99.90;;;;;;5089473;28;20511;-59
2022/01/15 05:47:41;;;;;;;27.13;3.00;;;-0.30;99.90;;;;;;5109575;28;20035;-59
2022/01/15 05:50:08;;;;;;;21.90;4.00;;;-0.20;99.90;;;;;;5088404;28;20043;-59
2022/01/15 05:52:33;;;;;;;32.63;4.75;;;-0.10;99.90;;;;;;5109331;28;20174;-59
2022/01/15 05:54:59;;;;;;;23.83;4.90;;;0.00;99.90;;;;;;5087261;28;20519;-59
2022/01/15 05:57:24;;;;;;;25.73;4.00;;;0.10;99.90;;;;;;5109088;28;20495;-59
2022/01/15 05:59:53;;;;;;;26.05;4.18;;;0.10;99.90;;;;;;5088220;28;20032;-59
2022/01/15 06:02:19;;;;;;;11.68;3.13;;;0.20;99.90;;;;;;5109407;28;20039;-59
2022/01/15 06:04:45;;;;;;;24.52;3.50;;;0.20;99.90;;;;;;5087984;28;20479;-59
2022/01/15 06:07:10;;;;;;;19.77;4.03;;;0.30;99.90;;;;;;5109161;28;20034;-59
2022/01/15 06:09:36;;;;;;;19.33;3.55;;;0.30;99.90;;;;;;5088124;28;20047;-59
2022/01/15 06:12:01;;;;;;;16.15;3.50;;;0.30;99.90;;;;;;5109001;28;20673;-60
2022/01/15 06:14:29;;;;;;;13.27;3.25;;;0.30;99.90;;;;;;5088160;28;20032;-59
2022/01/15 06:16:55;;;;;;;24.90;3.95;;;0.30;99.90;;;;;;5109416;28;20027;-59
2022/01/15 06:19:21;;;;;;;27.55;3.55;;;0.30;99.90;;;;;;5098090;28;20033;-59
2022/01/15 06:21:46;;;;;;;25.90;4.22;;;0.30;99.90;;;;;;5089526;28;20032;-59
2022/01/15 06:24:12;;;;;;;23.52;3.63;;;0.40;99.90;;;;;;5106948;28;20070;-59
2022/01/15 06:26:37;;;;;;;15.45;3.03;;;0.40;99.90;;;;;;5089421;28;20036;-59
2022/01/15 06:29:02;;;;;;;22.60;3.72;;;0.50;99.90;;;;;;5096355;28;20048;-59
2022/01/15 06:31:30;;;;;;;25.45;4.10;;;0.50;99.90;;;;;;5108601;28;20031;-59
2022/01/15 06:33:57;;;;;;;19.80;3.35;;;0.50;99.90;;;;;;5094118;28;20023;-59
2022/01/15 06:36:22;;;;;;;16.02;4.20;;;0.50;99.90;;;;;;5109294;28;20038;-59
2022/01/15 06:38:47;;;;;;;21.65;4.05;;;0.50;99.90;;;;;;5093396;28;20036;-60
2022/01/15 06:41:13;;;;;;;16.80;3.35;;;0.60;99.90;;;;;;5109194;28;20150;-59
2022/01/15 06:43:39;;;;;;;23.15;3.97;;;0.50;99.90;;;;;;5084739;28;20020;-59
2022/01/15 06:46:04;;;;;;;17.13;3.65;;;0.60;99.90;;;;;;5109414;28;20094;-59
2022/01/15 06:48:30;;;;;;;17.25;3.65;;;0.60;99.90;;;;;;5089828;28;20024;-59
2022/01/15 06:50:56;;;;;;;26.00;5.22;;;0.60;99.90;;;;;;5109012;28;20452;-60
2022/01/15 06:53:21;;;;;;;15.35;3.20;;;0.60;99.90;;;;;;5089384;28;20105;-59
2022/01/15 06:55:49;;;;;;;21.65;4.43;;;0.60;99.90;;;;;;5109111;28;20031;-60
2022/01/15 06:58:16;;;;;;;12.95;3.78;;;0.70;99.90;;;;;;5088055;28;20097;-60
2022/01/15 07:00:41;;;;;;;20.77;3.20;;;0.70;99.90;;;;;;5108879;28;20117;-59
2022/01/15 07:03:07;;;;;;;20.02;4.00;;;0.80;99.90;;;;;;5087491;28;20391;-59
2022/01/15 07:05:32;;;;;;;33.65;6.35;;;0.80;99.90;;;;;;5108834;28;20032;-59
2022/01/15 07:07:58;;;;;;;28.23;4.57;;;0.80;99.90;;;;;;5089001;28;20446;-59
2022/01/15 07:10:24;;;;;;;27.65;5.85;;;0.90;99.90;;;;;;5086780;28;20044;-59
2022/01/15 07:12:49;;;;;;;13.32;3.95;;;0.90;99.90;;;;;;5107972;28;20646;-60
2022/01/15 07:15:15;;;;;;;30.08;5.68;;;0.90;99.90;;;;;;5087095;28;20032;-60
2022/01/15 07:17:42;;;;;;;20.10;5.20;;;0.80;99.90;;;;;;5108044;28;20032;-59
2022/01/15 07:20:08;;;;;;;27.63;4.80;;;0.90;99.90;;;;;;5086980;28;20036;-59
2022/01/15 07:22:33;;;;;;;15.88;4.63;;;0.90;99.90;;;;;;5107822;28;20035;-60
2022/01/15 07:24:59;;;;;;;16.23;3.92;;;0.90;99.90;;;;;;5086964;28;20044;-60
2022/01/15 07:27:24;;;;;;;25.92;5.38;;;0.90;99.90;;;;;;5107625;28;20036;-59
2022/01/15 07:29:49;;;;;;;22.92;4.57;;;0.90;99.90;;;;;;5086673;28;20495;-60
2022/01/15 07:32:15;;;;;;;32.60;5.38;;;0.80;99.90;;;;;;5107677;28;20031;-60
2022/01/15 07:34:41;;;;;;;26.55;4.57;;;0.90;99.90;;;;;;5087099;28;20040;-60
2022/01/15 07:37:06;;;;;;;24.27;5.47;;;0.90;99.90;;;;;;5107806;28;20045;-59
2022/01/15 07:39:34;;;;;;;8.95;3.88;;;0.90;99.90;;;;;;5087060;28;20054;-60
2022/01/15 07:41:59;;;;;;;26.20;5.10;;;0.90;99.90;;;;;;5105067;28;20061;-60
2022/01/15 07:44:25;;;;;;;16.55;4.82;;;0.90;99.90;;;;;;5090883;28;20055;-59
2022/01/15 07:46:50;;;;;;;18.65;4.70;;;1.00;99.90;;;;;;5088587;28;20517;-60
2022/01/15 07:49:16;;;;;;;22.50;5.50;;;1.00;99.90;;;;;;5105638;28;20104;-60
2022/01/15 07:51:42;;;;;;;15.63;4.80;;;1.00;99.90;;;;;;5088477;28;20483;-60
2022/01/15 07:54:07;;;;;;;27.48;5.22;;;1.00;99.90;;;;;;5105838;28;20036;-60
2022/01/15 07:56:33;;;;;;;25.25;4.78;;;1.00;99.90;;;;;;5088438;28;20058;-60
2022/01/15 07:58:58;;;;;;;25.20;6.10;;;1.10;99.90;;;;;;5106589;28;20105;-60
2022/01/15 08:01:24;;;;;;;22.30;5.57;;;1.10;99.90;;;;;;5112043;28;20394;-59
2022/01/15 08:03:49;;;;;;;30.65;5.55;;;1.10;99.90;;;;;;5096291;28;20066;-60
2022/01/15 08:06:15;;;;;;;19.05;4.70;;;1.10;99.90;;;;;;5112124;28;20020;-60
2022/01/15 08:08:41;;;;;;;27.65;5.22;;;1.20;99.90;;;;;;5094860;28;20024;-59
2022/01/15 08:11:07;;;;;;;22.50;5.07;;;1.20;99.90;;;;;;5111947;28;20035;-60
2022/01/15 08:13:33;;;;;;;15.90;4.13;;;1.20;99.90;;;;;;5093615;28;20022;-60
2022/01/15 08:16:01;;;;;;;21.52;5.28;;;1.30;99.90;;;;;;5111871;28;20195;-60
2022/01/15 08:18:27;;;;;;;19.63;4.85;;;1.30;99.90;;;;;;5092396;28;20081;-59
2022/01/15 08:20:52;;;;;;;32.63;6.60;;;1.40;99.90;;;;;;5111920;28;20495;-60
2022/01/15 08:23:18;;;;;;;30.88;6.45;;;1.40;99.90;;;;;;5091841;28;20047;-60
2022/01/15 08:25:44;;;;;;;31.40;7.05;;;1.40;99.90;;;;;;5106758;28;20015;-60
2022/01/15 08:28:09;;;;;;;25.05;5.95;;;1.50;99.90;;;;;;5105961;28;20040;-60
2022/01/15 08:30:35;;;;;;;19.25;5.97;;;1.50;99.90;;;;;;5098351;28;20039;-60
2022/01/15 08:33:00;;;;;;;22.85;5.85;;;1.50;99.90;;;;;;5091197;28;20032;-60
2022/01/15 08:35:26;;;;;;;34.78;6.57;;;1.50;99.90;;;;;;5103627;28;20031;-59
2022/01/15 08:37:54;;;;;;;26.30;6.75;;;1.60;99.90;;;;;;5091373;28;20031;-60
2022/01/15 08:40:20;;;;;;;25.23;6.18;;;1.60;99.90;;;;;;5089108;28;20024;-59
2022/01/15 08:42:47;;;;;;;22.80;5.38;;;1.60;99.90;;;;;;5094216;28;20034;-60
2022/01/15 08:45:14;;;;;;;21.17;5.03;;;1.60;99.90;;;;;;5108698;28;20072;-59
2022/01/15 08:47:40;;;;;;;21.98;4.93;;;1.70;99.90;;;;;;5109715;28;20286;-59
2022/01/15 08:50:08;;;;;;;17.30;5.30;;;1.70;99.90;;;;;;5098333;28;20035;-59
2022/01/15 08:52:34;;;;;;;21.05;4.43;;;1.70;99.90;;;;;;5091007;28;20063;-60
2022/01/15 08:55:00;;;;;;;23.02;5.63;;;1.80;99.90;;;;;;5108418;28;20067;-65
2022/01/15 08:57:26;;;;;;;22.25;5.63;;;1.80;99.90;;;;;;5091220;28;20402;-66
2022/01/15 08:59:52;;;;;;;22.13;5.40;;;1.80;99.90;;;;;;5108495;28;20031;-66
2022/01/15 09:02:17;;;;;;;28.20;6.55;;;1.90;99.90;;;;;;5111057;28;20402;-66
2022/01/15 09:04:43;;;;;;;25.75;7.05;;;1.90;99.90;;;;;;5095254;28;20028;-66
2022/01/15 09:07:10;;;;;;;22.73;6.45;;;2.00;99.90;;;;;;5111149;28;20050;-66
2022/01/15 09:09:35;;;;;;;25.65;6.25;;;2.00;99.90;;;;;;5093357;28;20035;-66
2022/01/15 09:12:01;;;;;;;26.58;6.13;;;2.00;99.90;;;;;;5106103;28;20038;-65
2022/01/15 09:14:26;;;;;;;20.63;6.20;;;2.00;99.90;;;;;;5090978;28;20027;-66
2022/01/15 09:16:52;;;;;;;21.30;6.68;;;2.10;99.90;;;;;;5089728;28;20090;-67
2022/01/15 09:19:18;;;;;;;22.80;6.60;;;2.10;99.90;;;;;;5088694;28;20035;-68
2022/01/15 09:21:43;;;;;;;27.77;6.05;;;2.10;99.90;;;;;;5109765;28;20398;-68
2022/01/15 09:24:09;;;;;;;22.55;5.95;;;2.10;99.90;;;;;;5088766;28;20054;-67
2022/01/15 09:31:57;;;;;;;18.70;4.78;;;2.20;99.90;;;;;;5087580;28;20101;-67
2022/01/15 09:34:22;;;;;;;18.15;4.90;;;2.30;99.90;;;;;;5090247;28;20467;-67
2022/01/15 09:36:48;;;;;;;12.38;3.97;;;2.30;99.90;;;;;;5109702;28;20091;-68
2022/01/15 09:39:14;;;;;;;13.27;4.45;;;2.30;99.90;;;;;;5088774;28;20028;-67
2022/01/15 09:41:46;;;;;;;18.75;5.95;;;2.40;99.90;;;;;;5109518;28;20081;-68
2022/01/15 09:44:13;;;;;;;16.73;5.88;;;2.40;99.90;;;;;;5100672;28;20494;-67
2022/01/15 09:46:39;;;;;;;19.45;5.30;;;2.40;99.90;;;;;;5086416;28;20886;-67
2022/01/15 09:49:05;;;;;;;19.45;5.13;;;2.40;99.90;;;;;;5089561;28;20032;-67
2022/01/15 09:51:31;;;;;;;27.95;7.18;;;2.40;99.90;;;;;;5107360;28;20062;-67
2022/01/15 09:53:57;;;;;;;15.00;5.35;;;2.50;99.90;;;;;;5110330;28;20463;-67
2022/01/15 09:56:23;;;;;;;29.33;5.85;;;2.50;99.90;;;;;;5088615;28;20414;-67
2022/01/15 09:58:49;;;;;;;24.92;6.18;;;2.50;99.90;;;;;;5110001;28;20020;-67
2022/01/15 10:01:14;;;;;;;21.17;5.78;;;2.50;99.90;;;;;;5090357;28;20073;-66
2022/01/15 10:03:40;;;;;;;18.27;5.10;;;2.50;99.90;;;;;;5104496;28;20034;-63
2022/01/15 10:06:05;;;;;;;21.23;4.95;;;2.40;99.90;;;;;;5089390;28;20028;-69
2022/01/15 10:08:31;;;;;;;17.55;5.32;;;2.40;99.90;;;;;;5088199;28;20085;-68
2022/01/15 10:10:58;;;;;;;15.13;5.18;;;2.40;99.90;;;;;;5101224;28;20039;-68
2022/01/15 10:13:28;;;;;;;31.90;5.53;;;2.40;99.90;;;;;;5087598;28;20020;-69
2022/01/15 10:15:59;;;;;;;17.25;4.88;;;2.40;99.90;;;;;;5087268;28;20028;-68
2022/01/15 10:18:28;;;;;;;14.95;4.45;;;2.50;99.90;;;;;;5107590;28;20276;-68
2022/01/15 10:21:09;;;;;;;18.67;4.72;;;2.50;99.90;;;;;;5086955;28;20076;-68
2022/01/15 10:23:47;;;;;;;17.77;5.68;;;2.60;99.90;;;;;;5106380;28;20379;-67
2022/01/15 10:26:22;;;;;;;19.75;6.18;;;2.70;99.90;;;;;;5086087;28;20024;-68
2022/01/15 10:29:01;;;;;;;20.65;5.03;;;2.70;99.90;;;;;;5095212;28;20043;-69
2022/01/15 10:31:32;;;;;;;15.65;4.95;;;2.70;99.90;;;;;;5098458;28;20055;-68
2022/01/15 10:34:00;;;;;;;19.20;5.95;;;2.70;99.90;;;;;;5087671;28;20027;-68
2022/01/15 10:36:30;;;;;;;27.73;5.97;;;2.70;99.90;;;;;;5105638;28;20073;-68
2022/01/15 10:39:15;;;;;;;16.90;5.38;;;2.70;99.90;;;;;;5108623;28;20098;-69
2022/01/15 10:41:41;;;;;;;15.30;5.88;;;2.80;99.90;;;;;;5085329;28;20891;-69
2022/01/15 10:44:30;;;;;;;23.20;7.05;;;2.80;99.90;;;;;;5082717;28;20059;-70
2022/01/15 10:47:03;;;;;;;25.27;7.60;;;2.80;99.90;;;;;;5105021;28;20020;-70
2022/01/15 10:49:29;;;;;;;22.70;7.13;;;2.90;99.90;;;;;;5087095;28;20478;-69
2022/01/15 10:52:04;;;;;;;17.38;6.20;;;2.90;99.90;;;;;;5104931;28;20119;-71
2022/01/15 10:54:30;;;;;;;27.42;7.20;;;2.90;99.90;;;;;;5086951;28;20069;-69
2022/01/15 10:57:09;;;;;;;20.50;6.13;;;2.90;99.90;;;;;;5085622;28;20430;-70
2022/01/15 10:59:35;;;;;;;19.35;7.55;;;3.00;99.90;;;;;;5107202;28;20524;-69
2022/01/15 11:02:18;;;;;;;29.75;7.90;;;3.10;99.90;;;;;;5085216;28;20038;-69
2022/01/15 11:04:44;;;;;;;26.40;8.20;;;3.00;99.90;;;;;;5106238;28;20032;-69
2022/01/15 11:07:14;;;;;;;25.42;8.52;;;3.10;99.90;;;;;;5084998;28;20031;-70
2022/01/15 11:09:43;;;;;;;22.58;8.10;;;3.10;99.90;;;;;;5106385;28;20302;-68
2022/01/15 11:12:09;;;;;;;19.08;6.57;;;3.10;99.90;;;;;;5085530;28;20024;-69
2022/01/15 11:14:35;;;;;;;21.08;6.47;;;3.10;99.90;;;;;;5106831;28;20483;-68
2022/01/15 11:17:01;;;;;;;21.30;5.78;;;3.20;99.90;;;;;;5085591;28;20111;-68
2022/01/15 11:19:32;;;;;;;16.20;6.13;;;3.20;99.90;;;;;;5105881;28;20114;-68
2022/01/15 11:21:59;;;;;;;14.38;5.93;;;3.20;99.90;;;;;;5085031;28;20430;-69
2022/01/15 11:24:25;;;;;;;18.17;5.55;;;3.30;99.90;;;;;;5096379;28;20021;-68
2022/01/15 11:26:57;;;;;;;20.90;5.38;;;3.30;99.90;;;;;;5085229;28;20115;-68
2022/01/15 11:29:24;;;;;;;20.60;5.57;;;3.30;99.90;;;;;;5084379;28;20399;-68
2022/01/15 11:31:57;;;;;;;15.45;5.25;;;3.30;99.90;;;;;;5086769;28;20078;-68
2022/01/15 11:34:24;;;;;;;19.30;5.65;;;3.40;99.90;;;;;;5086721;28;20020;-68
2022/01/15 11:36:50;;;;;;;16.77;5.93;;;3.40;99.90;;;;;;5090932;28;20028;-69
2022/01/15 11:39:29;;;;;;;17.40;5.95;;;3.40;99.90;;;;;;5090718;28;20059;-68
2022/01/15 11:41:55;;;;;;;17.23;6.13;;;3.50;99.90;;;;;;5087983;28;20031;-69
2022/01/15 11:44:29;;;;;;;30.10;7.13;;;3.40;99.90;;;;;;5097183;28;20019;-67
2022/01/15 11:47:11;;;;;;;23.48;9.73;;;3.50;99.90;;;;;;5088850;28;20059;-68
2022/01/15 11:49:41;;;;;;;22.02;7.30;;;3.40;99.90;;;;;;5095607;28;20076;-68
2022/01/15 11:52:08;;;;;;;17.23;7.38;;;3.40;99.90;;;;;;5089414;28;20028;-68
2022/01/15 11:54:35;;;;;;;24.70;6.85;;;3.40;99.90;;;;;;5088210;28;20062;-68
2022/01/15 11:57:02;;;;;;;18.48;6.45;;;3.30;99.90;;;;;;5090380;28;20032;-68
2022/01/15 11:59:49;;;;;;;20.42;7.20;;;3.20;99.90;;;;;;5089630;28;20020;-69
2022/01/15 12:02:31;;;;;;;27.23;7.35;;;3.10;99.90;;;;;;5088832;28;20032;-67
2022/01/15 12:05:22;;;;;;;24.50;6.88;;;3.10;99.90;;;;;;5090451;28;20035;-68
2022/01/15 12:08:11;;;;;;;20.23;7.60;;;3.10;99.90;;;;;;5085126;28;20040;-69
2022/01/15 12:10:49;;;;;;;23.88;6.38;;;3.10;99.90;;;;;;5110253;28;20119;-67
2022/01/15 12:13:23;;;;;;;16.10;6.28;;;3.10;99.90;;;;;;5088361;28;20028;-69
2022/01/15 12:16:15;;;;;;;19.60;6.70;;;3.20;99.90;;;;;;5101064;28;20031;-70
2022/01/15 12:18:48;;;;;;;30.33;7.68;;;3.30;99.90;;;;;;5089659;28;20059;-71
2022/01/15 12:21:42;;;;;;;21.40;6.10;;;3.40;99.90;;;;;;5106676;28;20475;-69
2022/01/15 12:24:44;;;;;;;16.65;6.35;;;3.40;99.90;;;;;;5088700;28;20426;-70
2022/01/15 12:27:12;;;;;;;22.05;6.70;;;3.30;99.90;;;;;;5090013;28;20107;-68
2022/01/15 12:29:38;;;;;;;18.17;5.93;;;3.30;99.90;;;;;;5107329;28;20089;-70
2022/01/15 12:32:05;;;;;;;23.73;7.07;;;3.30;99.90;;;;;;5109555;28;20528;-69
2022/01/15 12:34:30;;;;;;;25.50;9.00;;;3.30;99.90;;;;;;5091347;28;20107;-70
2022/01/15 12:36:56;;;;;;;25.83;6.97;;;3.30;99.90;;;;;;5110651;28;20164;-68
2022/01/15 12:39:32;;;;;;;21.55;7.95;;;3.30;99.90;;;;;;5091002;28;20047;-68
2022/01/15 12:41:57;;;;;;;;;;;3.30;99.90;;;;;;5107883;28;20383;-69
2022/01/15 12:44:23;;;;;;;12.17;5.20;;;3.40;99.90;;;;;;5083132;28;19911;-69
2022/01/15 12:46:55;;;;;;;26.10;6.97;;;3.30;99.90;;;;;;5109128;28;20028;-70
2022/01/15 12:49:20;;;;;;;22.30;6.85;;;3.40;99.90;;;;;;5088336;28;20095;-68
2022/01/15 12:51:46;;;;;;;24.05;8.57;;;3.30;99.90;;;;;;5089797;28;20115;-69
2022/01/15 12:54:11;;;;;;;22.05;6.60;;;3.30;99.90;;;;;;5106949;28;20038;-69
2022/01/15 12:56:39;;;;;;;24.02;7.78;;;3.30;99.90;;;;;;5110105;28;20023;-69
2022/01/15 12:59:05;;;;;;;20.00;7.55;;;3.30;99.90;;;;;;5088380;28;20115;-69
2022/01/15 13:01:31;;;;;;;26.42;7.32;;;3.30;99.90;;;;;;5109810;28;20115;-71
2022/01/15 13:03:57;;;;;;;25.33;8.20;;;3.30;99.90;;;;;;5091680;28;20275;-72
2022/01/15 13:06:26;;;;;;;27.00;8.82;;;3.30;99.90;;;;;;5086510;28;20031;-68
2022/01/15 13:08:54;;;;;;;21.48;7.80;;;3.40;99.90;;;;;;5089683;28;20032;-71
2022/01/15 13:11:22;;;;;;;23.00;7.60;;;3.30;99.90;;;;;;5088422;28;20384;-68
2022/01/15 13:13:56;;;;;;;23.88;7.47;;;3.30;99.90;;;;;;5109435;28;20031;-69
2022/01/15 13:16:30;;;;;;;26.85;8.05;;;3.30;99.90;;;;;;5087797;28;20082;-69
2022/01/15 13:18:58;;;;;;;23.08;7.97;;;3.30;99.90;;;;;;5089232;28;20064;-70
2022/01/15 13:21:26;;;;;;;26.20;9.25;;;3.30;99.90;;;;;;5107137;28;20030;-68
2022/01/15 13:23:57;;;;;;;21.50;7.60;;;3.30;99.90;;;;;;5089199;28;20031;-70
2022/01/15 13:26:39;;;;;;;19.35;6.63;;;3.30;99.90;;;;;;5105873;28;20150;-70
2022/01/15 13:29:07;;;;;;;20.38;8.38;;;3.20;99.90;;;;;;5096722;28;20435;-68
2022/01/15 13:31:36;;;;;;;21.05;7.20;;;3.20;99.90;;;;;;5100530;28;20044;-69
2022/01/15 13:34:10;;;;;;;20.50;8.93;;;3.10;99.90;;;;;;5087166;28;20088;-70
2022/01/15 13:36:37;;;;;;;18.38;7.72;;;3.20;99.90;;;;;;5088815;28;20050;-70
2022/01/15 13:39:04;;;;;;;19.83;8.82;;;3.20;99.90;;;;;;5108592;28;20485;-72
2022/01/15 13:41:35;;;;;;;23.23;9.65;;;3.10;99.90;;;;;;5107034;28;20039;-71
2022/01/15 13:44:09;;;;;;;30.83;8.77;;;3.10;99.90;;;;;;5080662;28;20032;-71
2022/01/15 13:46:38;;;;;;;19.05;8.40;;;3.10;99.90;;;;;;5089037;28;20016;-71